createdAt,value
2023-02-12T00:02:37.030Z,7.81
2023-02-12T00:05:42.040Z,7.88
2023-02-12T00:08:45.008Z,7.90
2023-02-12T00:11:47.612Z,8.09
2023-02-12T00:14:50.272Z,8.14
2023-02-12T00:17:52.876Z,7.94
2023-02-12T00:21:00.421Z,7.82
2023-02-12T00:24:03.510Z,7.87
2023-02-12T00:27:06.082Z,7.82
2023-02-12T00:30:09.210Z,8.02
2023-02-12T00:33:11.803Z,8.32
2023-02-12T00:36:17.875Z,8.07
2023-02-12T00:39:20.485Z,8.02
2023-02-12T00:42:23.081Z,7.90
2023-02-12T00:45:25.719Z,7.62
2023-02-12T00:48:28.415Z,7.63
2023-02-12T00:51:32.373Z,7.68
2023-02-12T00:54:34.943Z,7.62
2023-02-12T00:57:37.549Z,7.63
2023-02-12T01:00:40.359Z,7.50
2023-02-12T01:03:42.937Z,7.70
2023-02-12T01:06:46.895Z,7.55
2023-02-12T01:09:49.720Z,7.57
2023-02-12T01:12:52.357Z,7.58
2023-02-12T01:16:08.608Z,7.62
2023-02-12T01:19:12.682Z,7.65
2023-02-12T01:22:16.630Z,7.71
2023-02-12T01:25:20.753Z,7.56
2023-02-12T01:28:23.578Z,7.53
2023-02-12T01:31:28.995Z,7.53
2023-02-12T01:34:31.753Z,7.69
2023-02-12T01:37:37.648Z,7.88
2023-02-12T01:40:40.237Z,7.84
2023-02-12T01:43:43.027Z,7.83
2023-02-12T01:46:47.667Z,7.85
2023-02-12T01:49:50.427Z,8.13
2023-02-12T01:52:58.712Z,8.08
2023-02-12T01:56:03.222Z,8.03
2023-02-12T01:59:06.351Z,7.88
2023-02-12T02:02:09.064Z,7.80
2023-02-12T02:05:16.307Z,7.90
2023-02-12T02:08:20.256Z,8.10
2023-02-12T02:11:40.797Z,8.09
2023-02-12T02:14:45.368Z,7.89
2023-02-12T02:17:54.260Z,7.91
2023-02-12T02:21:19.847Z,7.90
2023-02-12T02:24:54.662Z,8.10
2023-02-12T02:28:08.417Z,8.07
2023-02-12T02:31:18.722Z,7.88
2023-02-12T02:34:28.021Z,8.16
2023-02-12T02:37:36.930Z,8.24
2023-02-12T02:40:45.645Z,7.99
2023-02-12T02:43:50.275Z,8.19
2023-02-12T02:46:55.171Z,7.97
2023-02-12T02:50:02.879Z,7.95
2023-02-12T02:53:09.459Z,7.94
2023-02-12T02:56:16.734Z,7.64
2023-02-12T02:59:24.244Z,7.79
2023-02-12T03:02:33.046Z,7.73
2023-02-12T03:05:40.971Z,7.79
2023-02-12T03:08:49.300Z,8.01
2023-02-12T03:11:54.076Z,8.07
2023-02-12T03:15:04.256Z,8.09
2023-02-12T03:18:12.234Z,8.21
2023-02-12T03:21:19.798Z,7.89
2023-02-12T03:24:27.710Z,8.00
2023-02-12T03:27:33.673Z,8.14
2023-02-12T03:30:43.873Z,7.96
2023-02-12T03:34:01.422Z,7.95
2023-02-12T03:37:09.367Z,7.86
2023-02-12T03:40:18.796Z,7.99
2023-02-12T03:43:26.135Z,8.09
2023-02-12T03:46:37.015Z,7.99
2023-02-12T03:49:50.500Z,8.18
2023-02-12T03:52:53.163Z,8.14
2023-02-12T03:56:02.553Z,8.06
2023-02-12T03:59:06.432Z,7.98
2023-02-12T04:02:10.095Z,8.00
2023-02-12T04:05:20.495Z,8.10
2023-02-12T04:08:23.685Z,7.81
2023-02-12T04:11:33.913Z,7.88
2023-02-12T04:14:47.276Z,8.00
2023-02-12T04:17:57.920Z,8.08
2023-02-12T04:21:09.138Z,8.09
2023-02-12T04:24:19.838Z,8.07
2023-02-12T04:27:31.180Z,8.15
2023-02-12T04:30:38.528Z,8.27
2023-02-12T04:33:47.258Z,8.45
2023-02-12T04:36:57.279Z,8.44
2023-02-12T04:40:01.210Z,8.22
2023-02-12T04:43:03.900Z,7.99
2023-02-12T04:46:08.553Z,7.94
2023-02-12T04:49:15.982Z,7.76
2023-02-12T04:52:19.910Z,7.78
2023-02-12T04:55:22.497Z,7.68
2023-02-12T04:58:25.075Z,7.82
2023-02-12T05:01:30.302Z,7.82
2023-02-12T05:04:33.809Z,7.92
2023-02-12T05:07:37.763Z,7.97
2023-02-12T05:10:40.371Z,8.14
2023-02-12T05:13:42.936Z,7.99
2023-02-12T05:16:45.602Z,8.22
2023-02-12T05:19:48.928Z,8.31
2023-02-12T05:22:54.576Z,8.26
2023-02-12T05:26:00.380Z,8.34
2023-02-12T05:29:03.304Z,8.31
2023-02-12T05:32:06.876Z,8.33
2023-02-12T05:35:09.779Z,8.35
2023-02-12T05:38:13.697Z,8.26
2023-02-12T05:41:18.554Z,8.26
2023-02-12T05:44:21.173Z,8.31
2023-02-12T05:47:23.763Z,8.19
2023-02-12T05:50:26.380Z,8.32
2023-02-12T05:53:30.542Z,8.37
2023-02-12T05:56:34.810Z,8.39
2023-02-12T05:59:37.407Z,8.38
2023-02-12T06:02:40.318Z,8.20
2023-02-12T06:05:42.990Z,8.26
2023-02-12T06:08:48.752Z,8.37
2023-02-12T06:11:51.355Z,8.38
2023-02-12T06:14:53.993Z,8.37
2023-02-12T06:17:56.575Z,8.37
2023-02-12T06:20:59.194Z,8.37
2023-02-12T06:24:03.170Z,8.16
2023-02-12T06:27:05.803Z,8.13
2023-02-12T06:30:09.402Z,8.07
2023-02-12T06:33:12.000Z,8.00
2023-02-12T06:36:14.698Z,8.09
2023-02-12T06:39:19.045Z,8.11
2023-02-12T06:42:21.649Z,7.96
2023-02-12T06:45:24.338Z,8.13
2023-02-12T06:48:26.961Z,7.97
2023-02-12T06:51:31.314Z,7.96
2023-02-12T06:54:35.314Z,8.12
2023-02-12T06:57:37.928Z,8.14
2023-02-12T07:00:40.612Z,8.20
2023-02-12T07:03:43.642Z,8.32
2023-02-12T07:06:46.276Z,8.14
2023-02-12T07:09:50.216Z,8.28
2023-02-12T07:12:52.794Z,8.00
2023-02-12T07:15:55.704Z,7.93
2023-02-12T07:18:58.516Z,8.07
2023-02-12T07:22:01.159Z,8.15
2023-02-12T07:25:05.745Z,8.24
2023-02-12T07:28:08.433Z,8.33
2023-02-12T07:31:13.337Z,8.24
2023-02-12T07:34:15.993Z,7.91
2023-02-12T07:37:22.522Z,7.91
2023-02-12T07:40:26.872Z,8.05
2023-02-12T07:43:29.448Z,8.08
2023-02-12T07:46:33.943Z,8.20
2023-02-12T07:49:36.667Z,8.23
2023-02-12T07:52:39.242Z,8.08
2023-02-12T07:55:43.204Z,8.11
2023-02-12T07:58:47.684Z,7.99
2023-02-12T08:01:52.199Z,7.81
2023-02-12T08:04:57.187Z,8.00
2023-02-12T08:07:59.756Z,8.08
2023-02-12T08:11:03.676Z,8.16
2023-02-12T08:14:06.681Z,7.98
2023-02-12T08:17:09.399Z,8.25
2023-02-12T08:20:12.604Z,8.32
2023-02-12T08:23:15.164Z,8.28
2023-02-12T08:26:20.803Z,8.14
2023-02-12T08:29:26.195Z,8.18
2023-02-12T08:32:29.366Z,8.46
2023-02-12T08:35:31.979Z,8.47
2023-02-12T08:38:35.313Z,8.43
2023-02-12T08:41:39.298Z,8.48
2023-02-12T08:44:43.313Z,8.36
2023-02-12T08:47:48.496Z,8.44
2023-02-12T08:50:51.105Z,8.55
2023-02-12T08:53:55.225Z,8.65
2023-02-12T08:57:01.296Z,8.38
2023-02-12T09:00:04.980Z,8.21
2023-02-12T09:03:07.588Z,8.36
2023-02-12T09:06:11.147Z,8.25
2023-02-12T09:09:14.058Z,8.56
2023-02-12T09:12:17.998Z,8.66
2023-02-12T09:15:20.584Z,8.64
2023-02-12T09:18:23.142Z,8.80
2023-02-12T09:21:25.726Z,8.84
2023-02-12T09:24:28.523Z,8.86
2023-02-12T09:27:32.503Z,8.93
2023-02-12T09:30:35.222Z,8.93
2023-02-12T09:33:38.050Z,8.82
2023-02-12T09:36:40.639Z,8.87
2023-02-12T09:39:43.341Z,8.73
2023-02-12T09:43:01.832Z,8.81
2023-02-12T09:46:14.513Z,8.73
2023-02-12T09:49:24.808Z,8.74
2023-02-12T09:52:29.862Z,8.92
2023-02-12T09:55:35.041Z,8.87
2023-02-12T09:58:45.008Z,8.69
2023-02-12T10:01:47.723Z,8.81
2023-02-12T10:05:00.625Z,8.84
2023-02-12T10:08:24.634Z,9.13
2023-02-12T10:11:53.115Z,9.28
2023-02-12T10:15:14.126Z,9.12
2023-02-12T10:18:36.064Z,9.03
2023-02-12T10:21:53.299Z,9.03
2023-02-12T10:25:07.641Z,9.18
2023-02-12T10:28:13.931Z,9.32
2023-02-12T10:31:23.290Z,9.44
2023-02-12T10:34:28.424Z,9.42
2023-02-12T10:37:38.482Z,9.26
2023-02-12T10:40:45.149Z,9.15
2023-02-12T10:43:47.776Z,9.23
2023-02-12T10:46:51.743Z,9.31
2023-02-12T10:49:58.717Z,9.44
2023-02-12T10:53:03.536Z,9.53
2023-02-12T10:56:14.904Z,9.65
2023-02-12T10:59:24.162Z,9.48
2023-02-12T11:02:30.120Z,9.47
2023-02-12T11:05:35.908Z,9.32
2023-02-12T11:08:39.488Z,9.23
2023-02-12T11:11:42.151Z,9.31
2023-02-12T11:14:50.244Z,9.44
2023-02-12T11:18:00.510Z,9.44
2023-02-12T11:21:07.423Z,9.25
2023-02-12T11:24:32.561Z,9.29
2023-02-12T11:27:35.193Z,9.13
2023-02-12T11:30:50.304Z,9.19
2023-02-12T11:34:15.238Z,9.51
2023-02-12T11:37:20.758Z,9.34
2023-02-12T11:40:26.053Z,9.20
2023-02-12T11:43:31.422Z,9.09
2023-02-12T11:46:34.196Z,9.42
2023-02-12T11:49:44.472Z,9.25
2023-02-12T11:52:51.545Z,9.05
2023-02-12T11:56:00.805Z,9.18
2023-02-12T11:59:20.196Z,9.03
2023-02-12T12:02:27.478Z,8.96
2023-02-12T12:05:37.568Z,8.96
2023-02-12T12:08:45.133Z,8.98
2023-02-12T12:11:58.852Z,9.00
2023-02-12T12:15:21.547Z,9.24
2023-02-12T12:18:49.749Z,9.42
2023-02-12T12:21:59.712Z,9.53
2023-02-12T12:25:11.925Z,9.61
2023-02-12T12:28:29.241Z,9.69
2023-02-12T12:31:36.923Z,9.72
2023-02-12T12:34:39.539Z,9.56
2023-02-12T12:37:48.459Z,9.26
2023-02-12T12:41:03.780Z,9.07
2023-02-12T12:44:18.177Z,8.86
2023-02-12T12:47:26.906Z,8.79
2023-02-12T12:50:43.363Z,8.93
2023-02-12T12:54:03.794Z,9.18
2023-02-12T12:57:16.759Z,9.15
2023-02-12T13:00:31.658Z,9.31
2023-02-12T13:04:05.470Z,9.53
2023-02-12T13:07:29.204Z,9.72
2023-02-12T13:10:40.689Z,9.61
2023-02-12T13:13:47.190Z,9.57
2023-02-12T13:16:59.418Z,9.63
2023-02-12T13:20:10.354Z,9.65
2023-02-12T13:23:16.899Z,9.65
2023-02-12T13:26:30.600Z,9.52
2023-02-12T13:29:36.965Z,9.43
2023-02-12T13:32:46.232Z,9.20
2023-02-12T13:35:52.680Z,9.51
2023-02-12T13:38:59.513Z,9.79
2023-02-12T13:42:17.798Z,9.65
2023-02-12T13:45:31.638Z,9.71
2023-02-12T13:48:48.244Z,9.75
2023-02-12T13:52:00.956Z,9.38
2023-02-12T13:55:20.312Z,9.52
2023-02-12T13:59:00.271Z,9.36
2023-02-12T14:02:04.240Z,9.43
2023-02-12T14:05:27.202Z,9.52
2023-02-12T14:08:38.727Z,9.44
2023-02-12T14:11:51.086Z,9.63
2023-02-12T14:15:04.679Z,9.58
2023-02-12T14:18:26.992Z,9.76
2023-02-12T14:21:38.640Z,9.52
2023-02-12T14:24:57.065Z,9.45
2023-02-12T14:28:07.393Z,9.36
2023-02-12T14:31:41.758Z,9.25
2023-02-12T14:34:44.466Z,9.48
2023-02-12T14:37:47.041Z,9.61
2023-02-12T14:40:50.232Z,9.50
2023-02-12T14:44:04.887Z,9.57
2023-02-12T14:47:17.223Z,9.59
2023-02-12T14:50:24.473Z,9.54
2023-02-12T14:53:31.646Z,9.50
2023-02-12T14:56:44.040Z,9.40
2023-02-12T14:59:48.906Z,9.29
2023-02-12T15:02:55.697Z,9.20
2023-02-12T15:06:11.052Z,9.23
2023-02-12T15:09:21.912Z,9.00
2023-02-12T15:12:32.639Z,9.28
2023-02-12T15:15:40.406Z,9.11
2023-02-12T15:18:51.886Z,9.23
2023-02-12T15:21:55.457Z,9.35
2023-02-12T15:25:16.295Z,9.29
2023-02-12T15:28:22.876Z,9.19
2023-02-12T15:31:29.665Z,9.03
2023-02-12T15:34:37.822Z,9.03
2023-02-12T15:37:41.438Z,9.14
2023-02-12T15:40:55.590Z,9.21
2023-02-12T15:43:58.626Z,9.19
2023-02-12T15:47:10.847Z,9.04
2023-02-12T15:50:17.195Z,8.93
2023-02-12T15:53:21.130Z,9.01
2023-02-12T15:56:25.758Z,8.80
2023-02-12T15:59:29.608Z,9.03
2023-02-12T16:02:33.594Z,9.01
2023-02-12T16:05:37.630Z,9.13
2023-02-12T16:08:42.720Z,9.24
2023-02-12T16:11:47.634Z,9.25
2023-02-12T16:14:53.248Z,9.03
2023-02-12T16:17:57.087Z,8.95
2023-02-12T16:21:07.546Z,8.81
2023-02-12T16:24:23.580Z,9.06
2023-02-12T16:27:30.143Z,9.14
2023-02-12T16:30:34.889Z,9.18
2023-02-12T16:33:47.762Z,9.23
2023-02-12T16:36:53.198Z,9.05
2023-02-12T16:40:21.343Z,9.01
2023-02-12T16:43:27.421Z,9.00
2023-02-12T16:46:32.644Z,9.20
2023-02-12T16:49:35.440Z,9.22
2023-02-12T16:52:41.077Z,9.05
2023-02-12T16:55:43.669Z,9.00
2023-02-12T16:58:48.250Z,9.09
2023-02-12T17:01:59.072Z,9.04
2023-02-12T17:05:02.516Z,9.04
2023-02-12T17:08:13.519Z,9.16
2023-02-12T17:11:17.738Z,9.22
2023-02-12T17:14:21.562Z,9.29
2023-02-12T17:17:24.161Z,9.27
2023-02-12T17:20:26.809Z,8.82
2023-02-12T17:23:30.935Z,8.82
2023-02-12T17:26:33.562Z,8.99
2023-02-12T17:29:36.151Z,8.99
2023-02-12T17:32:38.716Z,9.04
2023-02-12T17:35:41.832Z,8.92
2023-02-12T17:38:45.763Z,8.97
2023-02-12T17:41:48.649Z,8.84
2023-02-12T17:44:51.311Z,9.03
2023-02-12T17:47:54.525Z,9.15
2023-02-12T17:50:58.115Z,9.25
2023-02-12T17:54:02.336Z,9.20
2023-02-12T17:57:05.078Z,9.21
2023-02-12T18:00:15.528Z,9.24
2023-02-12T18:03:18.096Z,9.01
2023-02-12T18:06:26.250Z,8.78
2023-02-12T18:09:30.288Z,8.84
2023-02-12T18:12:33.469Z,9.00
2023-02-12T18:15:36.400Z,9.02
2023-02-12T18:18:40.546Z,8.81
2023-02-12T18:21:43.172Z,8.92
2023-02-12T18:24:47.554Z,8.98
2023-02-12T18:27:50.147Z,8.92
2023-02-12T18:30:58.013Z,9.02
2023-02-12T18:34:00.811Z,9.04
2023-02-12T18:37:03.389Z,9.13
2023-02-12T18:40:08.871Z,9.19
2023-02-12T18:43:11.465Z,9.09
2023-02-12T18:46:16.447Z,9.13
2023-02-12T18:49:19.116Z,9.23
2023-02-12T18:52:21.701Z,9.21
2023-02-12T18:55:25.730Z,9.29
2023-02-12T18:58:28.304Z,9.25
2023-02-12T19:01:30.971Z,9.20
2023-02-12T19:04:33.748Z,9.22
2023-02-12T19:07:36.398Z,9.24
2023-02-12T19:10:41.212Z,9.20
2023-02-12T19:13:43.825Z,9.16
2023-02-12T19:16:47.448Z,9.12
2023-02-12T19:19:50.692Z,9.11
2023-02-12T19:22:53.286Z,8.94
2023-02-12T19:25:57.231Z,9.00
2023-02-12T19:29:00.161Z,8.90
2023-02-12T19:32:02.902Z,9.06
2023-02-12T19:35:05.909Z,9.01
2023-02-12T19:38:08.497Z,9.14
2023-02-12T19:41:14.899Z,9.08
2023-02-12T19:44:20.148Z,9.12
2023-02-12T19:47:22.762Z,8.94
2023-02-12T19:50:25.359Z,8.86
2023-02-12T19:53:28.722Z,9.03
2023-02-12T19:56:32.698Z,9.04
2023-02-12T19:59:35.379Z,9.01
2023-02-12T20:02:37.996Z,9.02
2023-02-12T20:05:46.042Z,9.10
2023-02-12T20:08:48.629Z,9.05
2023-02-12T20:11:52.905Z,9.11
2023-02-12T20:14:56.360Z,9.02
2023-02-12T20:17:59.234Z,9.13
2023-02-12T20:21:02.307Z,9.08
2023-02-12T20:24:05.619Z,8.85
2023-02-12T20:27:10.992Z,9.00
2023-02-12T20:30:14.563Z,8.87
2023-02-12T20:33:17.177Z,9.00
2023-02-12T20:36:19.805Z,9.02
2023-02-12T20:39:22.793Z,9.01
2023-02-12T20:42:26.874Z,9.02
2023-02-12T20:45:29.477Z,9.03
2023-02-12T20:48:32.166Z,9.07
2023-02-12T20:51:35.030Z,8.99
2023-02-12T20:54:39.038Z,9.05
2023-02-12T20:57:43.041Z,9.08
2023-02-12T21:00:45.607Z,9.01
2023-02-12T21:03:48.744Z,9.00
2023-02-12T21:06:51.397Z,9.00
2023-02-12T21:09:54.256Z,9.01
2023-02-12T21:12:58.192Z,9.00
2023-02-12T21:16:09.121Z,9.01
2023-02-12T21:19:13.913Z,9.02
2023-02-12T21:22:16.522Z,9.05
2023-02-12T21:25:19.194Z,8.92
2023-02-12T21:28:23.167Z,9.05
2023-02-12T21:31:27.499Z,9.06
2023-02-12T21:34:30.288Z,9.06
2023-02-12T21:37:32.876Z,9.03
2023-02-12T21:40:35.534Z,9.03
2023-02-12T21:43:40.971Z,8.98
2023-02-12T21:46:43.788Z,8.98
2023-02-12T21:49:46.383Z,9.01
2023-02-12T21:52:48.960Z,9.03
2023-02-12T21:55:51.589Z,8.98
2023-02-12T21:58:56.155Z,9.03
2023-02-12T22:01:59.016Z,9.00
2023-02-12T22:05:01.622Z,8.99
2023-02-12T22:08:04.498Z,8.98
2023-02-12T22:11:09.522Z,8.95
2023-02-12T22:14:18.005Z,9.04
2023-02-12T22:17:20.613Z,8.94
2023-02-12T22:20:23.195Z,8.93
2023-02-12T22:23:25.880Z,8.99
2023-02-12T22:26:30.997Z,9.03
2023-02-12T22:29:35.183Z,8.98
2023-02-12T22:32:37.822Z,8.91
2023-02-12T22:35:40.450Z,8.90
2023-02-12T22:38:43.056Z,8.96
2023-02-12T22:41:45.819Z,8.94
2023-02-12T22:44:49.763Z,8.95
2023-02-12T22:47:52.324Z,8.93
2023-02-12T22:50:55.311Z,8.93
2023-02-12T22:53:58.732Z,8.93
2023-02-12T22:57:01.320Z,8.93
2023-02-12T23:00:06.152Z,8.86
2023-02-12T23:03:08.768Z,8.90
2023-02-12T23:06:13.512Z,8.90
2023-02-12T23:09:18.864Z,8.88
2023-02-12T23:12:21.504Z,8.86
2023-02-12T23:15:25.526Z,8.89
2023-02-12T23:18:28.382Z,8.90
2023-02-12T23:21:32.424Z,8.89
2023-02-12T23:24:35.125Z,8.91
2023-02-12T23:27:37.863Z,8.88
2023-02-12T23:30:41.856Z,8.94
2023-02-12T23:33:44.500Z,8.90
2023-02-12T23:36:47.090Z,8.94
2023-02-12T23:39:49.684Z,8.90
2023-02-12T23:42:52.277Z,8.84
2023-02-12T23:45:56.285Z,8.89
2023-02-12T23:48:59.186Z,8.86
2023-02-12T23:52:01.845Z,8.91
2023-02-12T23:55:04.818Z,8.89
2023-02-12T23:58:07.790Z,8.90
